sensor_id;sensor_type;location;lat;lon;timestamp;P1;durP1;ratioP1;P2;durP2;ratioP2
4837;SDS011;2433;48.768;9.154;2024-03-02T00:00:05;6.50;;;4.97;;
4837;SDS011;2433;48.768;9.154;2024-03-02T00:02:43;7.80;;;4.60;;
4837;SDS011;2433;48.768;9.154;2024-03-02T00:05:11;5.67;;;4.90;;
4837;SDS011;2433;48.768;9.154;2024-03-02T00:07:37;6.50;;;4.87;;
4837;SDS011;2433;48.768;9.154;2024-03-02T00:10:05;6.50;;;4.10;;
4837;SDS011;2433;48.768;9.154;2024-03-02T00:12:34;7.63;;;5.73;;
4837;SDS011;2433;48.768;9.154;2024-03-02T00:15:00;7.70;;;5.03;;
4837;SDS011;2433;48.768;9.154;2024-03-02T00:17:28;5.47;;;4.37;;
4837;SDS011;2433;48.768;9.154;2024-03-02T00:19:54;6.60;;;4.07;;
4837;SDS011;2433;48.768;9.154;2024-03-02T00:22:20;7.30;;;4.80;;
4837;SDS011;2433;48.768;9.154;2024-03-02T00:24:45;6.40;;;4.70;;
4837;SDS011;2433;48.768;9.154;2024-03-02T00:27:12;7.43;;;5.00;;
4837;SDS011;2433;48.768;9.154;2024-03-02T00:29:40;6.33;;;5.50;;
4837;SDS011;2433;48.768;9.154;2024-03-02T00:32:11;5.30;;;4.00;;
4837;SDS011;2433;48.768;9.154;2024-03-02T00:34:38;6.43;;;4.30;;
4837;SDS011;2433;48.768;9.154;2024-03-02T00:37:03;5.80;;;5.10;;
4837;SDS011;2433;48.768;9.154;2024-03-02T00:39:29;6.37;;;4.77;;
4837;SDS011;2433;48.768;9.154;2024-03-02T00:41:55;6.37;;;4.33;;
4837;SDS011;2433;48.768;9.154;2024-03-02T00:44:21;2.40;;;1.63;;
4837;SDS011;2433;48.768;9.154;2024-03-02T00:46:51;4.67;;;3.50;;
4837;SDS011;2433;48.768;9.154;2024-03-02T00:49:21;5.90;;;3.20;;
4837;SDS011;2433;48.768;9.154;2024-03-02T00:51:48;5.40;;;4.17;;
4837;SDS011;2433;48.768;9.154;2024-03-02T00:54:18;6.27;;;4.60;;
4837;SDS011;2433;48.768;9.154;2024-03-02T00:56:45;3.83;;;3.10;;
4837;SDS011;2433;48.768;9.154;2024-03-02T00:59:10;4.77;;;3.97;;
4837;SDS011;2433;48.768;9.154;2024-03-02T01:01:36;12.97;;;4.10;;
4837;SDS011;2433;48.768;9.154;2024-03-02T01:04:01;8.00;;;4.27;;
4837;SDS011;2433;48.768;9.154;2024-03-02T01:06:27;6.77;;;4.27;;
4837;SDS011;2433;48.768;9.154;2024-03-02T01:08:53;5.47;;;4.50;;
4837;SDS011;2433;48.768;9.154;2024-03-02T01:11:18;7.50;;;5.17;;
4837;SDS011;2433;48.768;9.154;2024-03-02T01:13:45;8.13;;;4.30;;
4837;SDS011;2433;48.768;9.154;2024-03-02T01:16:11;5.10;;;4.40;;
4837;SDS011;2433;48.768;9.154;2024-03-02T01:18:37;6.57;;;4.20;;
4837;SDS011;2433;48.768;9.154;2024-03-02T01:21:02;6.47;;;4.57;;
4837;SDS011;2433;48.768;9.154;2024-03-02T01:23:28;12.30;;;4.90;;
4837;SDS011;2433;48.768;9.154;2024-03-02T01:25:54;6.23;;;4.77;;
4837;SDS011;2433;48.768;9.154;2024-03-02T01:28:21;4.87;;;3.53;;
4837;SDS011;2433;48.768;9.154;2024-03-02T01:30:47;5.40;;;3.50;;
4837;SDS011;2433;48.768;9.154;2024-03-02T01:33:13;6.30;;;5.33;;
4837;SDS011;2433;48.768;9.154;2024-03-02T01:35:38;7.07;;;4.37;;
4837;SDS011;2433;48.768;9.154;2024-03-02T01:38:04;6.43;;;4.23;;
4837;SDS011;2433;48.768;9.154;2024-03-02T01:40:33;5.23;;;3.97;;
4837;SDS011;2433;48.768;9.154;2024-03-02T01:42:59;6.97;;;4.23;;
4837;SDS011;2433;48.768;9.154;2024-03-02T01:45:25;5.50;;;3.43;;
4837;SDS011;2433;48.768;9.154;2024-03-02T01:47:51;4.47;;;3.60;;
4837;SDS011;2433;48.768;9.154;2024-03-02T01:50:27;7.43;;;4.60;;
4837;SDS011;2433;48.768;9.154;2024-03-02T01:52:54;6.13;;;3.73;;
4837;SDS011;2433;48.768;9.154;2024-03-02T01:55:20;6.10;;;4.23;;
4837;SDS011;2433;48.768;9.154;2024-03-02T01:57:46;4.77;;;3.63;;
4837;SDS011;2433;48.768;9.154;2024-03-02T02:00:13;6.60;;;4.27;;
4837;SDS011;2433;48.768;9.154;2024-03-02T02:02:39;5.00;;;3.80;;
4837;SDS011;2433;48.768;9.154;2024-03-02T02:05:05;5.20;;;4.07;;
4837;SDS011;2433;48.768;9.154;2024-03-02T02:07:30;4.83;;;3.73;;
4837;SDS011;2433;48.768;9.154;2024-03-02T02:09:56;6.47;;;4.17;;
4837;SDS011;2433;48.768;9.154;2024-03-02T02:12:22;6.50;;;4.77;;
4837;SDS011;2433;48.768;9.154;2024-03-02T02:14:48;5.57;;;3.73;;
4837;SDS011;2433;48.768;9.154;2024-03-02T02:17:15;5.73;;;3.90;;
4837;SDS011;2433;48.768;9.154;2024-03-02T02:19:42;8.57;;;4.70;;
4837;SDS011;2433;48.768;9.154;2024-03-02T02:22:08;5.57;;;4.10;;
4837;SDS011;2433;48.768;9.154;2024-03-02T02:24:34;5.17;;;3.80;;
4837;SDS011;2433;48.768;9.154;2024-03-02T02:27:00;5.17;;;3.60;;
4837;SDS011;2433;48.768;9.154;2024-03-02T02:29:25;8.90;;;4.43;;
4837;SDS011;2433;48.768;9.154;2024-03-02T02:31:51;7.20;;;4.93;;
4837;SDS011;2433;48.768;9.154;2024-03-02T02:34:17;7.83;;;4.87;;
4837;SDS011;2433;48.768;9.154;2024-03-02T02:36:42;8.30;;;4.40;;
4837;SDS011;2433;48.768;9.154;2024-03-02T02:39:09;8.60;;;4.87;;
4837;SDS011;2433;48.768;9.154;2024-03-02T02:41:37;6.37;;;4.23;;
4837;SDS011;2433;48.768;9.154;2024-03-02T02:44:03;8.07;;;4.80;;
4837;SDS011;2433;48.768;9.154;2024-03-02T02:46:29;6.27;;;4.37;;
4837;SDS011;2433;48.768;9.154;2024-03-02T02:48:54;5.93;;;3.67;;
4837;SDS011;2433;48.768;9.154;2024-03-02T02:51:20;7.13;;;4.40;;
4837;SDS011;2433;48.768;9.154;2024-03-02T02:53:45;6.53;;;5.60;;
4837;SDS011;2433;48.768;9.154;2024-03-02T02:56:11;6.13;;;4.10;;
4837;SDS011;2433;48.768;9.154;2024-03-02T02:58:36;6.93;;;5.43;;
4837;SDS011;2433;48.768;9.154;2024-03-02T03:01:02;6.30;;;4.57;;
4837;SDS011;2433;48.768;9.154;2024-03-02T03:03:28;8.23;;;4.70;;
4837;SDS011;2433;48.768;9.154;2024-03-02T03:05:53;7.17;;;4.50;;
4837;SDS011;2433;48.768;9.154;2024-03-02T03:08:19;7.47;;;4.63;;
4837;SDS011;2433;48.768;9.154;2024-03-02T03:10:44;7.27;;;4.60;;
4837;SDS011;2433;48.768;9.154;2024-03-02T03:13:10;8.40;;;4.23;;
4837;SDS011;2433;48.768;9.154;2024-03-02T03:15:36;7.37;;;4.20;;
4837;SDS011;2433;48.768;9.154;2024-03-02T03:18:02;7.80;;;6.03;;
4837;SDS011;2433;48.768;9.154;2024-03-02T03:20:29;9.03;;;4.70;;
4837;SDS011;2433;48.768;9.154;2024-03-02T03:22:55;9.30;;;5.23;;
4837;SDS011;2433;48.768;9.154;2024-03-02T03:25:21;7.87;;;4.63;;
4837;SDS011;2433;48.768;9.154;2024-03-02T03:27:46;11.13;;;6.20;;
4837;SDS011;2433;48.768;9.154;2024-03-02T03:30:12;9.73;;;5.83;;
4837;SDS011;2433;48.768;9.154;2024-03-02T03:32:38;6.63;;;4.67;;
4837;SDS011;2433;48.768;9.154;2024-03-02T03:35:04;9.33;;;5.13;;
4837;SDS011;2433;48.768;9.154;2024-03-02T03:37:30;8.27;;;4.00;;
4837;SDS011;2433;48.768;9.154;2024-03-02T03:39:58;8.10;;;6.60;;
4837;SDS011;2433;48.768;9.154;2024-03-02T03:42:24;8.10;;;4.97;;
4837;SDS011;2433;48.768;9.154;2024-03-02T03:44:50;5.63;;;4.50;;
4837;SDS011;2433;48.768;9.154;2024-03-02T03:47:15;8.50;;;4.90;;
4837;SDS011;2433;48.768;9.154;2024-03-02T03:49:41;10.40;;;5.57;;
4837;SDS011;2433;48.768;9.154;2024-03-02T03:52:07;10.03;;;4.67;;
4837;SDS011;2433;48.768;9.154;2024-03-02T03:54:32;10.33;;;6.30;;
4837;SDS011;2433;48.768;9.154;2024-03-02T03:56:58;9.30;;;6.60;;
4837;SDS011;2433;48.768;9.154;2024-03-02T03:59:23;5.90;;;4.57;;
4837;SDS011;2433;48.768;9.154;2024-03-02T04:01:49;6.90;;;4.43;;
4837;SDS011;2433;48.768;9.154;2024-03-02T04:04:14;5.97;;;3.87;;
4837;SDS011;2433;48.768;9.154;2024-03-02T04:06:40;10.50;;;6.20;;
4837;SDS011;2433;48.768;9.154;2024-03-02T04:09:05;10.57;;;5.47;;
4837;SDS011;2433;48.768;9.154;2024-03-02T04:11:31;13.03;;;5.40;;
4837;SDS011;2433;48.768;9.154;2024-03-02T04:13:57;7.37;;;4.80;;
4837;SDS011;2433;48.768;9.154;2024-03-02T04:16:22;7.13;;;4.23;;
4837;SDS011;2433;48.768;9.154;2024-03-02T04:18:48;8.57;;;4.23;;
4837;SDS011;2433;48.768;9.154;2024-03-02T04:21:14;4.80;;;3.40;;
4837;SDS011;2433;48.768;9.154;2024-03-02T04:23:39;7.90;;;4.50;;
4837;SDS011;2433;48.768;9.154;2024-03-02T04:26:05;5.87;;;4.10;;
4837;SDS011;2433;48.768;9.154;2024-03-02T04:28:31;8.70;;;5.13;;
4837;SDS011;2433;48.768;9.154;2024-03-02T04:30:56;9.07;;;5.03;;
4837;SDS011;2433;48.768;9.154;2024-03-02T04:33:22;6.20;;;4.30;;
4837;SDS011;2433;48.768;9.154;2024-03-02T04:35:47;11.53;;;5.90;;
4837;SDS011;2433;48.768;9.154;2024-03-02T04:38:13;7.97;;;4.10;;
4837;SDS011;2433;48.768;9.154;2024-03-02T04:40:39;5.70;;;3.97;;
4837;SDS011;2433;48.768;9.154;2024-03-02T04:43:04;8.63;;;5.00;;
4837;SDS011;2433;48.768;9.154;2024-03-02T04:45:30;10.30;;;5.97;;
4837;SDS011;2433;48.768;9.154;2024-03-02T04:47:55;9.60;;;5.50;;
4837;SDS011;2433;48.768;9.154;2024-03-02T04:50:21;10.23;;;5.57;;
4837;SDS011;2433;48.768;9.154;2024-03-02T04:52:46;14.47;;;6.90;;
4837;SDS011;2433;48.768;9.154;2024-03-02T04:55:12;6.37;;;4.20;;
4837;SDS011;2433;48.768;9.154;2024-03-02T04:57:40;10.30;;;5.40;;
4837;SDS011;2433;48.768;9.154;2024-03-02T05:00:06;10.70;;;5.50;;
4837;SDS011;2433;48.768;9.154;2024-03-02T05:02:34;9.00;;;4.83;;
4837;SDS011;2433;48.768;9.154;2024-03-02T05:05:00;11.67;;;6.40;;
4837;SDS011;2433;48.768;9.154;2024-03-02T05:07:25;6.17;;;3.93;;
4837;SDS011;2433;48.768;9.154;2024-03-02T05:09:51;8.10;;;4.87;;
4837;SDS011;2433;48.768;9.154;2024-03-02T05:12:17;6.33;;;4.77;;
4837;SDS011;2433;48.768;9.154;2024-03-02T05:15:00;7.03;;;4.47;;
4837;SDS011;2433;48.768;9.154;2024-03-02T05:17:27;5.97;;;5.00;;
4837;SDS011;2433;48.768;9.154;2024-03-02T05:19:53;10.73;;;5.50;;
4837;SDS011;2433;48.768;9.154;2024-03-02T05:22:19;6.27;;;4.40;;
4837;SDS011;2433;48.768;9.154;2024-03-02T05:24:44;6.50;;;4.90;;
4837;SDS011;2433;48.768;9.154;2024-03-02T05:27:10;8.10;;;4.70;;
4837;SDS011;2433;48.768;9.154;2024-03-02T05:29:36;7.70;;;4.57;;
4837;SDS011;2433;48.768;9.154;2024-03-02T05:32:01;7.40;;;5.20;;
4837;SDS011;2433;48.768;9.154;2024-03-02T05:34:27;7.23;;;4.60;;
4837;SDS011;2433;48.768;9.154;2024-03-02T05:36:52;11.40;;;5.47;;
4837;SDS011;2433;48.768;9.154;2024-03-02T05:39:18;9.33;;;5.13;;
4837;SDS011;2433;48.768;9.154;2024-03-02T05:41:44;8.10;;;5.10;;
4837;SDS011;2433;48.768;9.154;2024-03-02T05:44:09;11.00;;;4.50;;
4837;SDS011;2433;48.768;9.154;2024-03-02T05:46:35;8.73;;;5.03;;
4837;SDS011;2433;48.768;9.154;2024-03-02T05:49:00;12.63;;;6.30;;
4837;SDS011;2433;48.768;9.154;2024-03-02T05:51:26;7.97;;;5.30;;
4837;SDS011;2433;48.768;9.154;2024-03-02T05:53:52;7.53;;;4.50;;
4837;SDS011;2433;48.768;9.154;2024-03-02T05:56:18;4.70;;;3.50;;
4837;SDS011;2433;48.768;9.154;2024-03-02T05:58:43;7.57;;;4.30;;
4837;SDS011;2433;48.768;9.154;2024-03-02T06:01:11;9.33;;;5.13;;
4837;SDS011;2433;48.768;9.154;2024-03-02T06:03:37;9.80;;;5.87;;
4837;SDS011;2433;48.768;9.154;2024-03-02T06:06:04;5.70;;;3.53;;
4837;SDS011;2433;48.768;9.154;2024-03-02T06:08:29;6.10;;;3.60;;
4837;SDS011;2433;48.768;9.154;2024-03-02T06:10:55;8.23;;;4.50;;
4837;SDS011;2433;48.768;9.154;2024-03-02T06:13:21;4.57;;;3.60;;
4837;SDS011;2433;48.768;9.154;2024-03-02T06:15:47;7.33;;;5.13;;
4837;SDS011;2433;48.768;9.154;2024-03-02T06:18:12;4.50;;;3.27;;
4837;SDS011;2433;48.768;9.154;2024-03-02T06:20:38;11.37;;;5.30;;
4837;SDS011;2433;48.768;9.154;2024-03-02T06:23:04;6.50;;;3.97;;
4837;SDS011;2433;48.768;9.154;2024-03-02T06:25:30;8.17;;;4.63;;
4837;SDS011;2433;48.768;9.154;2024-03-02T06:27:56;7.00;;;3.77;;
4837;SDS011;2433;48.768;9.154;2024-03-02T06:30:21;9.17;;;4.67;;
4837;SDS011;2433;48.768;9.154;2024-03-02T06:32:47;3.63;;;2.30;;
4837;SDS011;2433;48.768;9.154;2024-03-02T06:35:12;7.30;;;4.37;;
4837;SDS011;2433;48.768;9.154;2024-03-02T06:37:38;9.30;;;5.63;;
4837;SDS011;2433;48.768;9.154;2024-03-02T06:40:05;6.23;;;4.40;;
4837;SDS011;2433;48.768;9.154;2024-03-02T06:42:33;9.47;;;6.17;;
4837;SDS011;2433;48.768;9.154;2024-03-02T06:44:59;7.63;;;5.10;;
4837;SDS011;2433;48.768;9.154;2024-03-02T06:47:24;7.17;;;5.20;;
4837;SDS011;2433;48.768;9.154;2024-03-02T06:49:50;6.33;;;3.90;;
4837;SDS011;2433;48.768;9.154;2024-03-02T06:52:16;10.43;;;3.30;;
4837;SDS011;2433;48.768;9.154;2024-03-02T06:54:41;7.73;;;5.70;;
4837;SDS011;2433;48.768;9.154;2024-03-02T06:57:07;11.80;;;5.67;;
4837;SDS011;2433;48.768;9.154;2024-03-02T06:59:32;7.60;;;4.60;;
4837;SDS011;2433;48.768;9.154;2024-03-02T07:01:59;7.67;;;4.43;;
4837;SDS011;2433;48.768;9.154;2024-03-02T07:04:24;10.20;;;5.00;;
4837;SDS011;2433;48.768;9.154;2024-03-02T07:06:50;5.53;;;4.30;;
4837;SDS011;2433;48.768;9.154;2024-03-02T07:09:16;0.50;;;0.40;;
4837;SDS011;2433;48.768;9.154;2024-03-02T07:11:42;8.30;;;4.20;;
4837;SDS011;2433;48.768;9.154;2024-03-02T07:14:08;8.60;;;4.30;;
4837;SDS011;2433;48.768;9.154;2024-03-02T07:16:33;6.47;;;4.80;;
4837;SDS011;2433;48.768;9.154;2024-03-02T07:19:00;3.70;;;2.03;;
4837;SDS011;2433;48.768;9.154;2024-03-02T07:21:27;6.00;;;3.93;;
4837;SDS011;2433;48.768;9.154;2024-03-02T07:23:53;7.97;;;3.93;;
4837;SDS011;2433;48.768;9.154;2024-03-02T07:26:19;3.50;;;1.93;;
4837;SDS011;2433;48.768;9.154;2024-03-02T07:28:47;7.43;;;4.30;;
4837;SDS011;2433;48.768;9.154;2024-03-02T07:31:14;14.33;;;5.17;;
4837;SDS011;2433;48.768;9.154;2024-03-02T07:33:40;7.17;;;4.23;;
4837;SDS011;2433;48.768;9.154;2024-03-02T07:36:07;3.83;;;3.10;;
4837;SDS011;2433;48.768;9.154;2024-03-02T07:38:32;7.80;;;3.70;;
4837;SDS011;2433;48.768;9.154;2024-03-02T07:41:00;4.93;;;2.77;;
4837;SDS011;2433;48.768;9.154;2024-03-02T07:43:25;7.03;;;3.30;;
4837;SDS011;2433;48.768;9.154;2024-03-02T07:45:51;4.93;;;3.07;;
4837;SDS011;2433;48.768;9.154;2024-03-02T07:48:17;4.60;;;3.10;;
4837;SDS011;2433;48.768;9.154;2024-03-02T07:50:52;7.10;;;4.13;;
4837;SDS011;2433;48.768;9.154;2024-03-02T07:53:17;10.30;;;5.33;;
4837;SDS011;2433;48.768;9.154;2024-03-02T07:55:43;7.87;;;4.47;;
4837;SDS011;2433;48.768;9.154;2024-03-02T07:58:10;7.13;;;4.67;;
4837;SDS011;2433;48.768;9.154;2024-03-02T08:00:38;3.83;;;2.20;;
4837;SDS011;2433;48.768;9.154;2024-03-02T08:03:05;5.90;;;4.10;;
4837;SDS011;2433;48.768;9.154;2024-03-02T08:05:30;3.50;;;2.53;;
4837;SDS011;2433;48.768;9.154;2024-03-02T08:07:56;4.50;;;3.90;;
4837;SDS011;2433;48.768;9.154;2024-03-02T08:10:21;3.93;;;3.63;;
4837;SDS011;2433;48.768;9.154;2024-03-02T08:12:47;4.53;;;3.20;;
4837;SDS011;2433;48.768;9.154;2024-03-02T08:15:12;6.40;;;3.43;;
4837;SDS011;2433;48.768;9.154;2024-03-02T08:17:39;6.10;;;3.50;;
4837;SDS011;2433;48.768;9.154;2024-03-02T08:20:11;7.30;;;3.70;;
4837;SDS011;2433;48.768;9.154;2024-03-02T08:22:37;6.10;;;4.47;;
4837;SDS011;2433;48.768;9.154;2024-03-02T08:25:03;9.33;;;4.40;;
4837;SDS011;2433;48.768;9.154;2024-03-02T08:27:29;6.20;;;4.00;;
4837;SDS011;2433;48.768;9.154;2024-03-02T08:29:54;5.37;;;3.50;;
4837;SDS011;2433;48.768;9.154;2024-03-02T08:32:20;12.33;;;4.03;;
4837;SDS011;2433;48.768;9.154;2024-03-02T08:34:46;4.90;;;3.60;;
4837;SDS011;2433;48.768;9.154;2024-03-02T08:37:11;7.40;;;3.37;;
4837;SDS011;2433;48.768;9.154;2024-03-02T08:39:37;5.27;;;3.67;;
4837;SDS011;2433;48.768;9.154;2024-03-02T08:42:03;5.37;;;3.70;;
4837;SDS011;2433;48.768;9.154;2024-03-02T08:44:29;6.93;;;3.67;;
4837;SDS011;2433;48.768;9.154;2024-03-02T08:46:55;6.27;;;4.10;;
4837;SDS011;2433;48.768;9.154;2024-03-02T08:49:21;6.03;;;3.83;;
4837;SDS011;2433;48.768;9.154;2024-03-02T08:51:46;4.93;;;3.77;;
4837;SDS011;2433;48.768;9.154;2024-03-02T08:54:22;6.13;;;3.40;;
4837;SDS011;2433;48.768;9.154;2024-03-02T08:56:48;6.90;;;2.90;;
4837;SDS011;2433;48.768;9.154;2024-03-02T08:59:14;3.63;;;3.20;;
4837;SDS011;2433;48.768;9.154;2024-03-02T09:01:40;5.80;;;3.53;;
4837;SDS011;2433;48.768;9.154;2024-03-02T09:04:07;6.97;;;4.10;;
4837;SDS011;2433;48.768;9.154;2024-03-02T09:06:34;4.50;;;3.30;;
4837;SDS011;2433;48.768;9.154;2024-03-02T09:09:00;4.30;;;3.20;;
4837;SDS011;2433;48.768;9.154;2024-03-02T09:11:25;3.80;;;2.83;;
4837;SDS011;2433;48.768;9.154;2024-03-02T09:13:51;7.40;;;3.60;;
4837;SDS011;2433;48.768;9.154;2024-03-02T09:16:18;5.23;;;3.43;;
4837;SDS011;2433;48.768;9.154;2024-03-02T09:18:44;5.40;;;2.73;;
4837;SDS011;2433;48.768;9.154;2024-03-02T09:21:10;6.20;;;3.50;;
4837;SDS011;2433;48.768;9.154;2024-03-02T09:23:35;4.13;;;2.60;;
4837;SDS011;2433;48.768;9.154;2024-03-02T09:26:01;6.10;;;3.27;;
4837;SDS011;2433;48.768;9.154;2024-03-02T09:28:28;4.00;;;3.60;;
4837;SDS011;2433;48.768;9.154;2024-03-02T09:30:54;5.03;;;3.20;;
4837;SDS011;2433;48.768;9.154;2024-03-02T09:33:20;2.13;;;1.90;;
4837;SDS011;2433;48.768;9.154;2024-03-02T09:35:45;5.70;;;3.10;;
4837;SDS011;2433;48.768;9.154;2024-03-02T09:38:11;2.43;;;2.23;;
4837;SDS011;2433;48.768;9.154;2024-03-02T09:40:36;3.47;;;2.47;;
4837;SDS011;2433;48.768;9.154;2024-03-02T09:43:02;4.50;;;3.20;;
4837;SDS011;2433;48.768;9.154;2024-03-02T09:45:28;3.40;;;2.53;;
4837;SDS011;2433;48.768;9.154;2024-03-02T09:47:54;5.37;;;2.67;;
4837;SDS011;2433;48.768;9.154;2024-03-02T09:50:20;3.40;;;2.30;;
4837;SDS011;2433;48.768;9.154;2024-03-02T09:52:49;3.00;;;2.50;;
4837;SDS011;2433;48.768;9.154;2024-03-02T09:55:15;3.53;;;2.03;;
4837;SDS011;2433;48.768;9.154;2024-03-02T09:57:43;3.20;;;2.20;;
4837;SDS011;2433;48.768;9.154;2024-03-02T10:00:09;3.40;;;2.53;;
4837;SDS011;2433;48.768;9.154;2024-03-02T10:02:43;3.03;;;2.20;;
4837;SDS011;2433;48.768;9.154;2024-03-02T10:05:09;5.43;;;2.13;;
4837;SDS011;2433;48.768;9.154;2024-03-02T10:07:36;3.17;;;2.27;;
4837;SDS011;2433;48.768;9.154;2024-03-02T10:10:14;2.60;;;2.13;;
4837;SDS011;2433;48.768;9.154;2024-03-02T10:12:40;5.50;;;2.97;;
4837;SDS011;2433;48.768;9.154;2024-03-02T10:15:06;3.80;;;2.80;;
4837;SDS011;2433;48.768;9.154;2024-03-02T10:17:33;3.27;;;2.30;;
4837;SDS011;2433;48.768;9.154;2024-03-02T10:19:58;3.83;;;2.40;;
4837;SDS011;2433;48.768;9.154;2024-03-02T10:22:24;3.37;;;2.80;;
4837;SDS011;2433;48.768;9.154;2024-03-02T10:24:49;2.80;;;2.03;;
4837;SDS011;2433;48.768;9.154;2024-03-02T10:27:16;3.37;;;2.20;;
4837;SDS011;2433;48.768;9.154;2024-03-02T10:29:45;3.43;;;2.07;;
4837;SDS011;2433;48.768;9.154;2024-03-02T10:32:11;2.57;;;1.73;;
4837;SDS011;2433;48.768;9.154;2024-03-02T10:34:37;3.23;;;2.20;;
4837;SDS011;2433;48.768;9.154;2024-03-02T10:37:05;4.97;;;2.43;;
4837;SDS011;2433;48.768;9.154;2024-03-02T10:39:31;2.33;;;1.80;;
4837;SDS011;2433;48.768;9.154;2024-03-02T10:41:57;3.43;;;2.00;;
4837;SDS011;2433;48.768;9.154;2024-03-02T10:44:23;3.70;;;1.97;;
4837;SDS011;2433;48.768;9.154;2024-03-02T10:46:50;3.23;;;1.90;;
4837;SDS011;2433;48.768;9.154;2024-03-02T10:49:18;2.07;;;1.70;;
4837;SDS011;2433;48.768;9.154;2024-03-02T10:51:44;2.47;;;2.17;;
4837;SDS011;2433;48.768;9.154;2024-03-02T10:54:10;3.57;;;2.70;;
4837;SDS011;2433;48.768;9.154;2024-03-02T10:56:39;1.97;;;1.77;;
4837;SDS011;2433;48.768;9.154;2024-03-02T10:59:26;2.87;;;1.80;;
4837;SDS011;2433;48.768;9.154;2024-03-02T11:02:03;2.20;;;1.60;;
4837;SDS011;2433;48.768;9.154;2024-03-02T11:04:29;3.40;;;2.27;;
4837;SDS011;2433;48.768;9.154;2024-03-02T11:07:03;2.60;;;1.37;;
4837;SDS011;2433;48.768;9.154;2024-03-02T11:09:30;2.27;;;1.90;;
4837;SDS011;2433;48.768;9.154;2024-03-02T11:14:37;3.23;;;2.20;;
4837;SDS011;2433;48.768;9.154;2024-03-02T11:17:08;2.03;;;1.83;;
4837;SDS011;2433;48.768;9.154;2024-03-02T11:19:34;2.73;;;1.80;;
4837;SDS011;2433;48.768;9.154;2024-03-02T11:22:02;1.37;;;1.13;;
4837;SDS011;2433;48.768;9.154;2024-03-02T11:24:28;2.13;;;1.57;;
4837;SDS011;2433;48.768;9.154;2024-03-02T11:26:58;1.37;;;1.20;;
4837;SDS011;2433;48.768;9.154;2024-03-02T11:32:19;1.00;;;0.90;;
4837;SDS011;2433;48.768;9.154;2024-03-02T11:34:48;1.43;;;0.83;;
4837;SDS011;2433;48.768;9.154;2024-03-02T11:37:15;1.70;;;0.90;;
4837;SDS011;2433;48.768;9.154;2024-03-02T11:39:49;1.10;;;1.00;;
4837;SDS011;2433;48.768;9.154;2024-03-02T11:42:16;0.70;;;0.40;;
4837;SDS011;2433;48.768;9.154;2024-03-02T11:44:42;0.67;;;0.43;;
4837;SDS011;2433;48.768;9.154;2024-03-02T11:47:10;0.63;;;0.40;;
4837;SDS011;2433;48.768;9.154;2024-03-02T11:49:40;0.60;;;0.40;;
4837;SDS011;2433;48.768;9.154;2024-03-02T11:52:16;1.03;;;0.30;;
4837;SDS011;2433;48.768;9.154;2024-03-02T11:54:44;0.50;;;0.30;;
4837;SDS011;2433;48.768;9.154;2024-03-02T11:57:14;0.73;;;0.73;;
4837;SDS011;2433;48.768;9.154;2024-03-02T11:59:41;0.80;;;0.63;;
4837;SDS011;2433;48.768;9.154;2024-03-02T12:02:12;1.00;;;0.50;;
4837;SDS011;2433;48.768;9.154;2024-03-02T12:04:40;0.80;;;0.40;;
4837;SDS011;2433;48.768;9.154;2024-03-02T12:07:06;1.47;;;0.50;;
4837;SDS011;2433;48.768;9.154;2024-03-02T12:09:32;0.83;;;0.40;;
4837;SDS011;2433;48.768;9.154;2024-03-02T12:12:01;0.90;;;0.30;;
4837;SDS011;2433;48.768;9.154;2024-03-02T12:14:37;1.17;;;0.43;;
4837;SDS011;2433;48.768;9.154;2024-03-02T12:17:04;0.70;;;0.40;;
4837;SDS011;2433;48.768;9.154;2024-03-02T12:19:30;0.70;;;0.47;;
4837;SDS011;2433;48.768;9.154;2024-03-02T12:21:57;0.40;;;0.20;;
4837;SDS011;2433;48.768;9.154;2024-03-02T12:24:23;3.50;;;0.70;;
4837;SDS011;2433;48.768;9.154;2024-03-02T12:26:50;0.80;;;0.40;;
4837;SDS011;2433;48.768;9.154;2024-03-02T12:29:16;0.50;;;0.30;;
4837;SDS011;2433;48.768;9.154;2024-03-02T12:31:43;0.80;;;0.60;;
4837;SDS011;2433;48.768;9.154;2024-03-02T12:34:12;1.90;;;0.80;;
4837;SDS011;2433;48.768;9.154;2024-03-02T12:36:38;0.83;;;0.60;;
4837;SDS011;2433;48.768;9.154;2024-03-02T12:39:04;0.97;;;0.60;;
4837;SDS011;2433;48.768;9.154;2024-03-02T12:41:30;0.90;;;0.70;;
4837;SDS011;2433;48.768;9.154;2024-03-02T12:43:56;0.70;;;0.60;;
4837;SDS011;2433;48.768;9.154;2024-03-02T12:46:22;0.90;;;0.67;;
4837;SDS011;2433;48.768;9.154;2024-03-02T12:48:47;2.30;;;0.97;;
4837;SDS011;2433;48.768;9.154;2024-03-02T12:51:13;0.93;;;0.70;;
4837;SDS011;2433;48.768;9.154;2024-03-02T12:53:39;1.53;;;0.60;;
4837;SDS011;2433;48.768;9.154;2024-03-02T12:56:05;1.27;;;0.90;;
4837;SDS011;2433;48.768;9.154;2024-03-02T12:58:38;0.90;;;0.70;;
4837;SDS011;2433;48.768;9.154;2024-03-02T13:01:08;1.10;;;1.00;;
4837;SDS011;2433;48.768;9.154;2024-03-02T13:03:38;0.80;;;0.70;;
4837;SDS011;2433;48.768;9.154;2024-03-02T13:06:07;1.80;;;0.77;;
4837;SDS011;2433;48.768;9.154;2024-03-02T13:08:34;1.43;;;0.80;;
4837;SDS011;2433;48.768;9.154;2024-03-02T13:11:00;1.70;;;0.63;;
4837;SDS011;2433;48.768;9.154;2024-03-02T13:13:30;2.13;;;1.00;;
4837;SDS011;2433;48.768;9.154;2024-03-02T13:15:56;2.07;;;1.87;;
4837;SDS011;2433;48.768;9.154;2024-03-02T13:18:22;1.37;;;0.63;;
4837;SDS011;2433;48.768;9.154;2024-03-02T13:20:48;1.23;;;0.83;;
4837;SDS011;2433;48.768;9.154;2024-03-02T13:23:13;0.90;;;0.73;;
4837;SDS011;2433;48.768;9.154;2024-03-02T13:25:40;0.90;;;0.80;;
4837;SDS011;2433;48.768;9.154;2024-03-02T13:28:06;1.30;;;0.90;;
4837;SDS011;2433;48.768;9.154;2024-03-02T13:30:32;1.20;;;0.90;;
4837;SDS011;2433;48.768;9.154;2024-03-02T13:32:58;1.90;;;0.93;;
4837;SDS011;2433;48.768;9.154;2024-03-02T13:35:24;1.20;;;0.73;;
4837;SDS011;2433;48.768;9.154;2024-03-02T13:37:49;0.90;;;0.70;;
4837;SDS011;2433;48.768;9.154;2024-03-02T13:40:15;1.67;;;1.07;;
4837;SDS011;2433;48.768;9.154;2024-03-02T13:42:43;1.13;;;0.90;;
4837;SDS011;2433;48.768;9.154;2024-03-02T13:45:09;1.03;;;0.80;;
4837;SDS011;2433;48.768;9.154;2024-03-02T13:47:34;1.10;;;0.80;;
4837;SDS011;2433;48.768;9.154;2024-03-02T13:50:00;1.40;;;0.80;;
4837;SDS011;2433;48.768;9.154;2024-03-02T13:52:27;1.33;;;0.90;;
4837;SDS011;2433;48.768;9.154;2024-03-02T13:54:53;0.80;;;0.60;;
4837;SDS011;2433;48.768;9.154;2024-03-02T13:57:18;1.03;;;0.70;;
4837;SDS011;2433;48.768;9.154;2024-03-02T13:59:45;1.13;;;0.70;;
4837;SDS011;2433;48.768;9.154;2024-03-02T14:02:11;0.90;;;0.60;;
4837;SDS011;2433;48.768;9.154;2024-03-02T14:04:37;0.83;;;0.80;;
4837;SDS011;2433;48.768;9.154;2024-03-02T14:07:02;1.20;;;0.60;;
4837;SDS011;2433;48.768;9.154;2024-03-02T14:09:29;0.87;;;0.80;;
4837;SDS011;2433;48.768;9.154;2024-03-02T14:11:55;0.93;;;0.77;;
4837;SDS011;2433;48.768;9.154;2024-03-02T14:14:21;2.00;;;0.83;;
4837;SDS011;2433;48.768;9.154;2024-03-02T14:16:47;1.60;;;0.90;;
4837;SDS011;2433;48.768;9.154;2024-03-02T14:19:12;0.73;;;0.57;;
4837;SDS011;2433;48.768;9.154;2024-03-02T14:21:39;0.73;;;0.50;;
4837;SDS011;2433;48.768;9.154;2024-03-02T14:24:05;0.60;;;0.47;;
4837;SDS011;2433;48.768;9.154;2024-03-02T14:26:34;1.53;;;0.60;;
4837;SDS011;2433;48.768;9.154;2024-03-02T14:29:02;1.93;;;0.90;;
4837;SDS011;2433;48.768;9.154;2024-03-02T14:31:28;1.60;;;0.90;;
4837;SDS011;2433;48.768;9.154;2024-03-02T14:33:54;1.17;;;0.70;;
4837;SDS011;2433;48.768;9.154;2024-03-02T14:36:20;0.80;;;0.57;;
4837;SDS011;2433;48.768;9.154;2024-03-02T14:38:46;1.30;;;0.90;;
4837;SDS011;2433;48.768;9.154;2024-03-02T14:41:11;0.73;;;0.60;;
4837;SDS011;2433;48.768;9.154;2024-03-02T14:43:37;1.40;;;0.73;;
4837;SDS011;2433;48.768;9.154;2024-03-02T14:46:03;1.03;;;0.80;;
4837;SDS011;2433;48.768;9.154;2024-03-02T14:48:28;3.27;;;0.93;;
4837;SDS011;2433;48.768;9.154;2024-03-02T14:50:54;0.70;;;0.70;;
4837;SDS011;2433;48.768;9.154;2024-03-02T14:53:20;0.70;;;0.70;;
4837;SDS011;2433;48.768;9.154;2024-03-02T14:55:45;2.80;;;1.13;;
4837;SDS011;2433;48.768;9.154;2024-03-02T14:58:11;1.00;;;0.80;;
4837;SDS011;2433;48.768;9.154;2024-03-02T15:00:37;0.67;;;0.40;;
4837;SDS011;2433;48.768;9.154;2024-03-02T15:03:03;0.87;;;0.83;;
4837;SDS011;2433;48.768;9.154;2024-03-02T15:05:31;0.90;;;0.50;;
4837;SDS011;2433;48.768;9.154;2024-03-02T15:07:57;1.70;;;0.77;;
4837;SDS011;2433;48.768;9.154;2024-03-02T15:10:24;0.83;;;0.80;;
4837;SDS011;2433;48.768;9.154;2024-03-02T15:12:50;1.80;;;1.30;;
4837;SDS011;2433;48.768;9.154;2024-03-02T15:15:16;0.50;;;0.40;;